• Join FlightAware (Why Join?)
  • Login
  • US Flag 
09:57AM EDT


 

Airport Tracker/Info


-or-


 

Live Flight TrackerFlight Track Log ✈ SWA318 ✈ 19-Apr-2013 ✈ KSDF - KBWI

Flight Track Log - Related Links

Times and Time Zones

All times are in EDT time to prevent confusion due to time zone crossing. See the SWA318 flight status page for this flight to view local times or setup timezone preferences in your user account.

Time Position Orientation Groundspeed Altitude Reporting Facility
EDT Latitude Longitude Course Direction KTS MPH feet Rate Location/Type
06:40PM 38.1897 -85.7767 293° West 154 177 2,500  Level FAA TRACON SMA TRACON (SMA)
06:40PM 38.1956 -85.7953 292° West 176 203 3,200 2,580 Climbing FAA TRACON SMA TRACON (SMA)
06:41PM 38.2019 -85.8144 293° West 191 220 4,300 3,600 Climbing FAA TRACON SMA TRACON (SMA)
06:41PM 38.2092 -85.8392 290° West 195 224 5,700 3,720 Climbing FAA TRACON SMA TRACON (SMA)
06:41PM 38.2028 -85.8581 247° West 206 237 6,800 3,480 Climbing FAA TRACON SMA TRACON (SMA)
06:42PM 38.1850 -85.8639 194° South 224 258 8,000 3,960 Climbing FAA TRACON SMA TRACON (SMA)
06:42PM 38.1617 -85.8503 155° Southeast 241 277 9,400 2,820 Climbing FAA TRACON SMA TRACON (SMA)
06:42PM 38.1478 -85.8267 127° Southeast 266 306 9,900 1,800 Climbing FAA TRACON SMA TRACON (SMA)
06:43PM 38.1294 -85.7492 107° East 349 402 11,200 2,280 Climbing FAA TRACON SMA TRACON (SMA)
06:43PM 38.1281 -85.7061 92° East 393 452 12,200 3,600 Climbing FAA TRACON SMA TRACON (SMA)
06:44PM 38.1344 -85.6522 81° East 404 465 13,600 3,600 Climbing FAA TRACON SMA TRACON (SMA)
06:44PM 38.1394 -85.6114 81° East 388 447 14,600 3,300 Climbing FAA TRACON SMA TRACON (SMA)
06:44PM 38.1436 -85.5694 83° East 384 442 15,800 3,900 Climbing FAA TRACON SMA TRACON (SMA)
06:45PM 38.1481 -85.5169 84° East 389 448 17,200 3,480 Climbing FAA TRACON SMA TRACON (SMA)
06:45PM 38.1517 -85.4739 84° East 396 456 18,200 2,700 Climbing FAA TRACON SMA TRACON (SMA)
06:45PM 38.1550 -85.4297 85° East 405 466 19,000 2,880 Climbing FAA TRACON SMA TRACON (SMA)
06:46PM 38.1586 -85.3722 85° East 421 484 20,100 2,880 Climbing FAA TRACON SMA TRACON (SMA)
06:46PM 38.1625 -85.3256 84° East 431 496 21,000 2,520 Climbing FAA TRACON SMA TRACON (SMA)
06:46PM 38.1656 -85.2781 85° East 439 505 21,800 2,760 Climbing FAA TRACON SMA TRACON (SMA)
06:47PM 38.1700 -85.2167 85° East 450 518 22,800 2,700 Climbing FAA TRACON SMA TRACON (SMA)
06:47PM 38.1733 -85.1669 85° East 457 526 23,600 2,580 Climbing FAA TRACON SMA TRACON (SMA)
06:48PM 38.1822 -85.0519 84° East 474 545 25,400 2,460 Climbing FAA TRACON SMA TRACON (SMA)
06:48PM 38.1856 -85.0000 85° East 479 551 26,100 2,160 Climbing FAA TRACON SMA TRACON (SMA)
06:48PM 38.1892 -84.9475 85° East 483 556 26,900 2,520 Climbing FAA TRACON SMA TRACON (SMA)
06:49PM 38.1933 -84.8814 85° East 487 560 27,800 2,280 Climbing FAA TRACON SMA TRACON (SMA)
06:49PM 38.1972 -84.8281 85° East 493 567 28,400 1,800 Climbing FAA TRACON SMA TRACON (SMA)
06:49PM 38.2014 -84.7739 84° East 499 574 29,000 2,100 Climbing FAA TRACON SMA TRACON (SMA)
06:50PM 38.2058 -84.7053 85° East 504 580 29,800 2,160 Climbing FAA TRACON SMA TRACON (SMA)
06:50PM 38.2097 -84.6503 85° East 509 586 30,500 1,920 Climbing FAA TRACON SMA TRACON (SMA)
06:50PM 38.2136 -84.5950 85° East 511 588 31,100 2,100 Climbing FAA TRACON SMA TRACON (SMA)
06:51PM 38.2181 -84.5394 84° East 512 589 31,900 2,520 Climbing FAA TRACON SMA TRACON (SMA)
06:51PM 38.2228 -84.4714 85° East 506 582 32,800 1,620 Climbing FAA TRACON SMA TRACON (SMA)
06:51PM 38.2222 -84.4386 91° East 509 586 33,000 120 Climbing Indianapolis Center
06:52PM 38.2314 -84.2639 86° East 499 574 33,000 300 Level Indianapolis Center
06:53PM 38.2433 -84.0594 86° East 495 570 33,700 1,200 Climbing Indianapolis Center
06:54PM 38.2522 -83.8875 86° East 487 560 35,600 1,440 Climbing Indianapolis Center
06:55PM 38.2617 -83.7144 86° East 489 563 36,700 660 Climbing Indianapolis Center
06:56PM 38.2714 -83.5336 86° East 503 579 37,000 120 Climbing Indianapolis Center
06:57PM 38.2803 -83.3564 86° East 503 579 37,000  Level Indianapolis Center
06:59PM 38.2892 -83.1792 86° East 500 575 37,000  Level Indianapolis Center
07:00PM 38.2986 -82.9750 87° East 496 571 37,000 240 Level Indianapolis Center
07:01PM 38.3069 -82.7981 87° East 498 573 37,600 600 Climbing Indianapolis Center
07:02PM 38.3150 -82.6156 87° East 512 589 38,300 600 Climbing Indianapolis Center
07:03PM 38.3222 -82.4503 87° East 527 606 38,900 960 Climbing Indianapolis Center
07:04PM 38.3317 -82.2214 87° East 539 620 40,300 960 Climbing Indianapolis Center
07:05PM 38.3403 -82.0350 87° East 532 612 41,000 300 Climbing Indianapolis Center
07:06PM 38.3472 -81.8486 87° East 530 610 41,000  Level Indianapolis Center
07:07PM 38.3472 -81.6647 90° East 525 604 41,000  Level Indianapolis Center
07:08PM 38.3406 -81.4814 93° East 525 604 41,000  Level Indianapolis Center
07:09PM 38.3336 -81.2614 92° East 523 602 41,000  Level Indianapolis Center
07:10PM 38.3267 -81.0764 93° East 527 606 41,000  Level Indianapolis Center
07:10PM 38.3219 -80.9672 93° East 528 608 41,000 -600 Level Washington Center
07:11PM 38.3153 -80.7842 93° East 528 608 40,100 -900 Descending Washington Center
07:12PM 38.3083 -80.6036 93° East 518 596 39,200 -960 Descending Washington Center
07:13PM 38.3031 -80.4286 92° East 503 579 38,200 -900 Descending Washington Center
07:14PM 38.2967 -80.2772 93° East 490 564 37,400 -1,080 Descending Washington Center
07:15PM 38.2906 -80.1050 93° East 485 558 36,100 -1,800 Descending Washington Center
07:16PM 38.2844 -79.9378 93° East 480 552 33,800 -2,520 Descending Washington Center
07:17PM 38.2775 -79.7761 93° East 475 547 31,100 -3,360 Descending Washington Center
07:18PM 38.2778 -79.5883 90° East 470 541 27,100 -2,100 Descending Washington Center
07:19PM 38.3167 -79.4183 74° East 482 555 27,000 -180 Descending Washington Center
07:20PM 38.3489 -79.2533 76° East 482 555 26,800 -600 Descending Washington Center
07:21PM 38.3828 -79.0961 75° East 471 542 25,800 -1,020 Descending Washington Center
07:22PM 38.4186 -78.9386 74° East 466 536 24,800 -900 Descending Washington Center
07:23PM 38.4519 -78.7811 75° East 461 531 24,000 -420 Descending Washington Center
07:24PM 38.4833 -78.6233 76° East 461 531 24,000 -420 Level Washington Center
07:25PM 38.5183 -78.4656 74° East 461 531 23,200 -900 Descending Washington Center
07:26PM 38.5492 -78.3100 76° East 455 524 22,300 -960 Descending Washington Center
07:27PM 38.5817 -78.1544 75° East 449 517 21,300 -1,020 Descending Washington Center
07:28PM 38.6119 -78.0069 75° East 449 517 20,300 -660 Descending Washington Center
07:29PM 38.6419 -77.8617 75° East 438 504 20,000 -180 Descending Washington Center
07:30PM 38.6956 -77.7675 57° Northeast 388 447 20,000  Level Washington Center
07:31PM 38.6479 -77.7043 57° Northeast  Level FlightAware Approximate
07:31PM 38.7892 -77.7861 351° North 283 326 20,000  Level Washington Center
07:32PM 38.8314 -77.8675 304° West 215 247 20,000  Level Washington Center
07:33PM 38.8300 -77.9447 269° West 210 242 20,000  Level Washington Center
07:34PM 38.8139 -78.0214 255° West 210 242 20,000  Level Washington Center
07:35PM 38.7975 -78.1008 255° West 220 253 20,000  Level Washington Center
07:36PM 38.7772 -78.1747 251° West 225 259 20,000  Level Washington Center
07:37PM 38.7344 -78.2239 222° Southwest 220 253 20,000  Level Washington Center
07:38PM 38.6739 -78.2322 186° South 204 235 20,000  Level Washington Center
07:39PM 38.6164 -78.1931 152° Southeast 203 234 20,000  Level Washington Center
07:40PM 38.5911 -78.0992 109° East 210 242 20,000  Level Washington Center
07:41PM 38.6144 -77.9883 75° East 244 281 20,000  Level Washington Center
07:42PM 38.6372 -77.8775 75° East 283 326 20,000  Level Washington Center
07:43PM 38.6947 -77.8153 40° Northeast 318 366 20,000  Level Washington Center
07:44PM 38.7564 -77.8706 325° Northwest 210 242 20,000  Level Washington Center
07:45PM 38.7444 -77.9525 259° West 145 167 20,000  Level Washington Center
07:46PM 38.7261 -78.0319 254° West 178 205 20,000  Level Washington Center
07:47PM 38.7097 -78.1111 255° West 214 246 20,000  Level Washington Center
07:48PM 38.6753 -78.1658 231° Southwest 220 253 20,000  Level Washington Center
07:49PM 38.6150 -78.1531 171° South 182 209 20,000  Level Washington Center
07:50PM 38.5983 -78.0569 102° East 170 196 20,000  Level Washington Center
07:51PM 38.6214 -77.9486 75° East 226 260 20,000  Level Washington Center
07:52PM 38.6483 -77.8406 72° East 279 321 20,000  Level Washington Center
07:53PM 38.7300 -77.8217 10° North 261 300 20,000  Level Washington Center
07:54PM 38.7536 -77.9050 290° West 165 190 20,000  Level Washington Center
07:55PM 38.7375 -77.9844 255° West 161 185 20,000  Level Washington Center
07:56PM 38.7192 -78.0608 253° West 193 222 20,000  Level Washington Center
07:57PM 38.7031 -78.1322 254° West 210 242 20,000  Level Washington Center
07:58PM 38.6564 -78.1706 213° Southwest 199 229 20,000  Level Washington Center
07:59PM 38.6008 -78.1339 153° Southeast 172 198 20,000  Level Washington Center
08:00PM 38.6053 -78.0253 87° East 178 205 20,000  Level Washington Center
08:01PM 38.6303 -77.9169 74° East 263 303 20,000  Level Washington Center
08:02PM 38.6697 -77.8225 62° Northeast 322 371 20,000  Level Washington Center
08:03PM 38.7464 -77.8461 346° North 218 251 20,000  Level Washington Center
08:04PM 38.7489 -77.9289 272° West 139 160 20,000  Level Washington Center
08:05PM 38.7061 -77.9833 225° Southwest 158 182 20,000  Level Washington Center
08:06PM 38.6725 -77.8944 116° Southeast 133 153 20,000  Level Washington Center
08:07PM 38.6744 -77.7908 89° East 220 253 20,000  Level Washington Center
08:08PM 38.7481 -77.7531 22° Northeast 220 253 20,000  Level Washington Center
08:09PM 38.7633 -77.8308 284° West 108 124 20,000  Level Washington Center
08:10PM 38.7617 -77.9133 269° West 163 188 20,000  Level Washington Center
08:11PM 38.7581 -77.9931 267° West 199 229 20,000  Level Washington Center
08:12PM 38.7522 -78.0753 265° West 220 253 20,000  Level Washington Center
08:13PM 38.7361 -78.1439 253° West 231 266 20,000  Level Washington Center
08:14PM 38.6836 -78.1714 202° Southwest 186 214 20,000  Level Washington Center
08:15PM 38.6303 -78.1244 145° Southeast 178 205 20,000  Level Washington Center
08:16PM 38.6283 -78.0153 91° East 207 238 20,000  Level Washington Center
08:17PM 38.6369 -77.9039 84° East 258 297 20,000  Level Washington Center
08:18PM 38.6678 -77.8119 67° East 315 362 20,000  Level Washington Center
08:19PM 38.7511 -77.8197 356° North 232 267 20,000  Level Washington Center
08:20PM 38.7642 -77.9025 281° West 147 169 20,000  Level Washington Center
08:21PM 38.7561 -77.9850 263° West 173 199 20,000  Level Washington Center
08:22PM 38.7506 -78.0619 265° West 201 231 20,000  Level Washington Center
08:23PM 38.7386 -78.1308 257° West 213 245 20,000  Level Washington Center
08:24PM 38.6961 -78.1664 213° Southwest 195 224 20,000  Level Washington Center
08:25PM 38.6383 -78.1406 161° South 168 193 20,000  Level Washington Center
08:26PM 38.6258 -78.0364 99° East 182 209 20,000  Level Washington Center
08:27PM 38.6364 -77.9225 83° East 262 302 20,000  Level Washington Center
08:28PM 38.6572 -77.8222 75° East 285 328 20,000  Level Washington Center
08:30PM 38.6389 -77.7000 78° East  Level FlightAware Approximate
08:30PM 38.7600 -77.8944 78° East 142 163 20,000  Level Washington Center
08:31PM 38.7544 -77.9717 265° West 171 197 20,000  Level Washington Center
08:32PM 38.7486 -78.0458 264° West 189 217 20,000  Level Washington Center
08:33PM 38.7408 -78.1175 262° West 202 232 20,000  Level Washington Center
08:34PM 38.7003 -78.1639 222° Southwest 192 221 20,000  Level Washington Center
08:35PM 38.6425 -78.1433 164° South 172 198 20,000  Level Washington Center
08:36PM 38.6258 -78.0392 102° East 172 198 20,000 -240 Level Washington Center
08:37PM 38.6347 -77.9039 85° East 302 348 19,600 -540 Descending Washington Center
08:38PM 38.6478 -77.7608 83° East 408 470 19,000 -300 Descending Washington Center
08:39PM 38.6567 -77.6094 86° East 408 470 19,000 -600 Level Washington Center
08:40PM 38.6667 -77.5333 80° East 422 486 18,200 -2,220 Descending Potomac TRACON
08:41PM 38.6667 -77.4000 90° East 415 478 16,100 -1,380 Descending Potomac TRACON
08:42PM 38.6833 -77.2500 82° East 409 471 15,600 -1,440 Descending Potomac TRACON
08:43PM 38.6833 -77.1000 90° East 402 463 13,300 -2,280 Descending Potomac TRACON
08:44PM 38.7000 -76.9667 81° East 395 455 11,100 -1,680 Descending Potomac TRACON
08:45PM 38.7000 -76.8333 90° East 364 419 10,000 -1,020 Descending Potomac TRACON
08:45PM 38.7033 -76.7728 86° East 365 420 9,400 -1,380 Descending Washington Center
08:47PM 38.7667 -76.6167 62° Northeast 334 384 7,300 -1,500 Descending Potomac TRACON
08:48PM 38.8167 -76.5333 52° Northeast 334 384 6,000 -900 Descending Potomac TRACON
08:49PM 38.9000 -76.5333 360° North 309 356 5,600 -420 Descending Potomac TRACON